createdAt,value
2023-02-06T00:00:44.724Z,63.55
2023-02-06T00:01:49.680Z,63.90
2023-02-06T00:02:52.323Z,64.19
2023-02-06T00:03:55.308Z,64.01
2023-02-06T00:04:57.955Z,63.84
2023-02-06T00:06:02.121Z,64.33
2023-02-06T00:07:04.793Z,63.44
2023-02-06T00:08:08.287Z,63.97
2023-02-06T00:09:11.523Z,63.73
2023-02-06T00:10:14.162Z,63.94
2023-02-06T00:11:18.174Z,63.80
2023-02-06T00:12:20.931Z,63.78
2023-02-06T00:13:23.922Z,64.15
2023-02-06T00:14:26.577Z,64.15
2023-02-06T00:15:29.239Z,64.14
2023-02-06T00:16:34.058Z,64.28
2023-02-06T00:17:37.961Z,64.70
2023-02-06T00:18:40.584Z,64.77
2023-02-06T00:19:44.268Z,64.23
2023-02-06T00:20:46.966Z,63.67
2023-02-06T00:21:49.634Z,63.88
2023-02-06T00:22:52.247Z,63.53
2023-02-06T00:23:57.008Z,64.96
2023-02-06T00:25:00.052Z,64.78
2023-02-06T00:26:02.753Z,64.04
2023-02-06T00:27:05.399Z,64.56
2023-02-06T00:28:08.069Z,63.69
2023-02-06T00:29:10.906Z,64.07
2023-02-06T00:30:14.046Z,64.04
2023-02-06T00:31:18.408Z,64.55
2023-02-06T00:32:21.366Z,64.48
2023-02-06T00:33:24.122Z,64.34
2023-02-06T00:34:26.877Z,63.86
2023-02-06T00:35:29.529Z,64.00
2023-02-06T00:36:33.591Z,64.35
2023-02-06T00:37:36.209Z,64.30
2023-02-06T00:38:39.222Z,64.35
2023-02-06T00:39:41.996Z,64.18
2023-02-06T00:40:44.658Z,64.04
2023-02-06T00:41:47.350Z,64.64
2023-02-06T00:42:50.015Z,64.72
2023-02-06T00:43:52.657Z,64.73
2023-02-06T00:44:55.302Z,64.38
2023-02-06T00:45:59.306Z,64.79
2023-02-06T00:47:02.429Z,64.88
2023-02-06T00:48:05.146Z,64.93
2023-02-06T00:49:07.863Z,64.34
2023-02-06T00:50:10.739Z,65.14
2023-02-06T00:51:13.442Z,66.00
2023-02-06T00:52:16.073Z,66.06
2023-02-06T00:53:19.066Z,66.60
2023-02-06T00:54:22.031Z,66.69
2023-02-06T00:55:24.714Z,66.82
2023-02-06T00:56:27.427Z,66.89
2023-02-06T00:57:30.068Z,66.70
2023-02-06T00:58:32.719Z,66.48
2023-02-06T00:59:35.370Z,66.22
2023-02-06T01:00:38.033Z,66.29
2023-02-06T01:01:40.720Z,66.04
2023-02-06T01:02:43.441Z,65.76
2023-02-06T01:03:46.135Z,65.92
2023-02-06T01:04:48.773Z,65.75
2023-02-06T01:05:51.477Z,65.58
2023-02-06T01:06:54.181Z,66.02
2023-02-06T01:07:57.046Z,66.07
2023-02-06T01:08:59.751Z,66.30
2023-02-06T01:10:02.436Z,66.20
2023-02-06T01:11:14.465Z,66.22
2023-02-06T01:12:17.128Z,65.58
2023-02-06T01:13:19.892Z,65.62
2023-02-06T01:14:22.866Z,65.71
2023-02-06T01:15:25.769Z,66.68
2023-02-06T01:16:28.989Z,66.51
2023-02-06T01:17:33.816Z,66.27
2023-02-06T01:18:36.544Z,66.46
2023-02-06T01:19:39.834Z,66.71
2023-02-06T01:20:42.519Z,66.38
2023-02-06T01:21:45.211Z,66.97
2023-02-06T01:22:48.011Z,67.28
2023-02-06T01:23:52.847Z,67.30
2023-02-06T01:24:55.639Z,67.43
2023-02-06T01:25:58.255Z,67.05
2023-02-06T01:27:00.889Z,66.99
2023-02-06T01:28:03.660Z,66.93
2023-02-06T01:29:06.310Z,66.75
2023-02-06T01:30:09.840Z,67.25
2023-02-06T01:31:18.721Z,67.22
2023-02-06T01:32:21.544Z,66.78
2023-02-06T01:33:24.209Z,67.34
2023-02-06T01:34:26.888Z,66.97
2023-02-06T01:35:30.681Z,66.52
2023-02-06T01:36:33.508Z,66.71
2023-02-06T01:37:37.143Z,66.93
2023-02-06T01:38:40.981Z,66.85
2023-02-06T01:39:43.697Z,67.03
2023-02-06T01:40:46.338Z,67.16
2023-02-06T01:41:49.145Z,66.85
2023-02-06T01:42:51.980Z,67.17
2023-02-06T01:44:13.243Z,67.11
2023-02-06T01:45:37.565Z,67.32
2023-02-06T01:46:42.159Z,66.99
2023-02-06T01:47:44.887Z,66.67
2023-02-06T01:48:51.396Z,66.36
2023-02-06T01:49:54.015Z,66.61
2023-02-06T01:50:58.946Z,66.50
2023-02-06T01:52:25.128Z,66.48
2023-02-06T01:53:29.289Z,67.12
2023-02-06T01:54:32.610Z,67.08
2023-02-06T01:55:39.329Z,67.23
2023-02-06T01:56:55.561Z,67.17
2023-02-06T01:57:58.566Z,66.74
2023-02-06T01:59:04.212Z,66.53
2023-02-06T02:00:11.817Z,66.24
2023-02-06T02:01:14.549Z,66.02
2023-02-06T02:02:17.473Z,65.58
2023-02-06T02:03:20.284Z,65.06
2023-02-06T02:04:25.495Z,64.76
2023-02-06T02:05:28.222Z,64.88
2023-02-06T02:06:31.379Z,64.95
2023-02-06T02:07:37.353Z,65.95
2023-02-06T02:08:49.080Z,66.01
2023-02-06T02:09:51.730Z,65.24
2023-02-06T02:10:54.472Z,65.47
2023-02-06T02:11:57.148Z,65.85
2023-02-06T02:12:59.898Z,66.01
2023-02-06T02:14:04.604Z,65.93
2023-02-06T02:15:07.646Z,65.75
2023-02-06T02:16:38.475Z,66.42
2023-02-06T02:18:03.876Z,65.78
2023-02-06T02:19:37.481Z,65.76
2023-02-06T02:20:53.095Z,66.61
2023-02-06T02:21:55.770Z,66.16
2023-02-06T02:23:17.789Z,66.43
2023-02-06T02:24:32.432Z,66.60
2023-02-06T02:26:11.288Z,65.87
2023-02-06T02:27:40.521Z,65.77
2023-02-06T02:29:01.233Z,66.09
2023-02-06T02:30:11.647Z,66.06
2023-02-06T02:31:48.047Z,66.73
2023-02-06T02:33:09.069Z,67.22
2023-02-06T02:34:42.701Z,67.40
2023-02-06T02:36:39.479Z,67.48
2023-02-06T02:38:07.213Z,66.95
2023-02-06T02:39:30.724Z,66.74
2023-02-06T02:40:59.542Z,66.58
2023-02-06T02:42:20.698Z,65.35
2023-02-06T02:43:45.080Z,64.85
2023-02-06T02:44:51.311Z,64.89
2023-02-06T02:46:09.866Z,65.22
2023-02-06T02:47:17.264Z,65.74
2023-02-06T02:48:25.389Z,66.69
2023-02-06T02:49:32.772Z,66.12
2023-02-06T02:50:36.644Z,66.16
2023-02-06T02:51:41.544Z,66.23
2023-02-06T02:52:44.380Z,66.16
2023-02-06T02:53:47.427Z,66.37
2023-02-06T02:54:50.052Z,66.52
2023-02-06T02:55:52.724Z,66.39
2023-02-06T02:57:02.352Z,66.14
2023-02-06T02:58:10.379Z,66.39
2023-02-06T02:59:29.568Z,66.42
2023-02-06T03:00:37.864Z,66.21
2023-02-06T03:01:52.951Z,65.82
2023-02-06T03:02:58.555Z,65.80
2023-02-06T03:04:07.015Z,65.94
2023-02-06T03:05:14.110Z,65.71
2023-02-06T03:06:39.141Z,65.77
2023-02-06T03:07:54.331Z,65.35
2023-02-06T03:09:15.367Z,66.54
2023-02-06T03:10:57.982Z,66.84
2023-02-06T03:12:13.983Z,66.84
2023-02-06T03:13:32.952Z,66.26
2023-02-06T03:14:43.582Z,66.74
2023-02-06T03:16:05.426Z,66.49
2023-02-06T03:17:11.903Z,66.65
2023-02-06T03:18:23.299Z,66.68
2023-02-06T03:19:37.886Z,67.15
2023-02-06T03:20:44.788Z,66.70
2023-02-06T03:21:49.439Z,67.01
2023-02-06T03:22:53.414Z,67.40
2023-02-06T03:24:00.691Z,67.41
2023-02-06T03:25:08.128Z,66.97
2023-02-06T03:26:14.844Z,66.91
2023-02-06T03:27:19.471Z,66.87
2023-02-06T03:28:28.505Z,66.95
2023-02-06T03:29:35.113Z,66.47
2023-02-06T03:30:41.044Z,66.21
2023-02-06T03:31:47.557Z,65.28
2023-02-06T03:32:55.722Z,65.33
2023-02-06T03:34:23.656Z,65.27
2023-02-06T03:35:34.728Z,65.78
2023-02-06T03:36:37.754Z,65.62
2023-02-06T03:37:41.170Z,65.88
2023-02-06T03:38:46.755Z,65.98
2023-02-06T03:39:49.626Z,66.02
2023-02-06T03:40:54.686Z,65.82
2023-02-06T03:42:00.754Z,65.34
2023-02-06T03:43:06.928Z,64.34
2023-02-06T03:44:14.307Z,64.42
2023-02-06T03:45:24.295Z,64.19
2023-02-06T03:46:30.093Z,65.70
2023-02-06T03:47:34.528Z,66.02
2023-02-06T03:48:42.128Z,65.76
2023-02-06T03:49:48.823Z,65.19
2023-02-06T03:50:55.339Z,64.98
2023-02-06T03:52:05.063Z,65.74
2023-02-06T03:53:09.430Z,66.77
2023-02-06T03:54:15.179Z,66.88
2023-02-06T03:55:22.305Z,66.84
2023-02-06T03:57:16.200Z,66.84
2023-02-06T03:58:19.143Z,67.70
2023-02-06T03:59:22.424Z,67.51
2023-02-06T04:00:26.508Z,67.10
2023-02-06T04:01:29.353Z,66.92
2023-02-06T04:02:33.155Z,67.32
2023-02-06T04:03:36.426Z,67.29
2023-02-06T04:04:42.058Z,67.45
2023-02-06T04:05:44.952Z,67.34
2023-02-06T04:06:48.258Z,66.84
2023-02-06T04:07:51.344Z,66.92
2023-02-06T04:08:54.653Z,67.12
2023-02-06T04:09:57.318Z,67.34
2023-02-06T04:11:00.096Z,66.95
2023-02-06T04:12:02.737Z,67.53
2023-02-06T04:13:05.557Z,66.59
2023-02-06T04:14:08.407Z,67.11
2023-02-06T04:15:11.354Z,67.15
2023-02-06T04:16:14.215Z,66.97
2023-02-06T04:17:31.338Z,67.04
2023-02-06T04:18:39.833Z,67.06
2023-02-06T04:19:43.388Z,66.78
2023-02-06T04:20:46.044Z,66.66
2023-02-06T04:21:48.718Z,66.57
2023-02-06T04:22:51.487Z,66.84
2023-02-06T04:23:54.300Z,66.81
2023-02-06T04:24:56.924Z,66.06
2023-02-06T04:25:59.595Z,66.43
2023-02-06T04:27:02.248Z,66.99
2023-02-06T04:28:05.309Z,67.09
2023-02-06T04:29:08.301Z,67.19
2023-02-06T04:30:11.542Z,67.31
2023-02-06T04:31:20.870Z,67.31
2023-02-06T04:32:23.568Z,66.95
2023-02-06T04:33:26.257Z,67.46
2023-02-06T04:34:32.825Z,66.66
2023-02-06T04:35:35.838Z,67.40
2023-02-06T04:36:45.903Z,67.53
2023-02-06T04:37:55.505Z,67.61
2023-02-06T04:38:58.143Z,67.62
2023-02-06T04:40:00.773Z,67.59
2023-02-06T04:41:08.107Z,67.65
2023-02-06T04:42:16.982Z,67.55
2023-02-06T04:43:19.606Z,68.17
2023-02-06T04:44:22.903Z,67.63
2023-02-06T04:45:25.604Z,67.73
2023-02-06T04:46:28.314Z,67.34
2023-02-06T04:47:37.853Z,67.47
2023-02-06T04:48:40.476Z,68.03
2023-02-06T04:49:43.502Z,68.04
2023-02-06T04:50:46.156Z,67.93
2023-02-06T04:51:48.866Z,68.00
2023-02-06T04:52:57.887Z,67.90
2023-02-06T04:54:00.515Z,67.27
2023-02-06T04:55:03.175Z,67.80
2023-02-06T04:56:07.669Z,67.38
2023-02-06T04:57:10.294Z,67.61
2023-02-06T04:58:19.878Z,67.10
2023-02-06T04:59:22.530Z,67.50
2023-02-06T05:00:25.239Z,67.86
2023-02-06T05:01:28.065Z,67.13
2023-02-06T05:02:31.868Z,67.02
2023-02-06T05:03:40.937Z,66.78
2023-02-06T05:04:43.640Z,67.36
2023-02-06T05:05:46.493Z,67.37
2023-02-06T05:06:49.097Z,67.34
2023-02-06T05:07:51.818Z,67.15
2023-02-06T05:09:01.139Z,67.09
2023-02-06T05:10:04.364Z,67.67
2023-02-06T05:11:07.408Z,68.10
2023-02-06T05:12:11.213Z,67.96
2023-02-06T05:13:14.889Z,67.96
2023-02-06T05:14:24.058Z,67.79
2023-02-06T05:15:26.705Z,67.56
2023-02-06T05:16:29.425Z,67.61
2023-02-06T05:17:32.172Z,67.43
2023-02-06T05:18:35.306Z,67.30
2023-02-06T05:19:44.917Z,67.46
2023-02-06T05:20:47.626Z,67.55
2023-02-06T05:21:50.413Z,66.97
2023-02-06T05:22:53.035Z,66.88
2023-02-06T05:23:55.854Z,67.16
2023-02-06T05:25:04.922Z,66.64
2023-02-06T05:26:07.631Z,67.06
2023-02-06T05:27:10.394Z,66.84
2023-02-06T05:28:13.173Z,66.64
2023-02-06T05:29:16.316Z,66.92
2023-02-06T05:30:25.914Z,66.91
2023-02-06T05:31:28.631Z,66.78
2023-02-06T05:32:31.317Z,67.67
2023-02-06T05:33:34.116Z,67.66
2023-02-06T05:34:36.985Z,67.56
2023-02-06T05:35:47.130Z,67.43
2023-02-06T05:36:56.070Z,67.35
2023-02-06T05:38:12.050Z,67.02
2023-02-06T05:39:15.030Z,67.58
2023-02-06T05:40:18.146Z,67.62
2023-02-06T05:41:27.132Z,67.67
2023-02-06T05:42:29.812Z,67.67
2023-02-06T05:43:32.449Z,67.01
2023-02-06T05:44:35.081Z,66.53
2023-02-06T05:45:38.167Z,66.70
2023-02-06T05:46:47.054Z,66.59
2023-02-06T05:47:49.726Z,66.21
2023-02-06T05:48:52.723Z,66.49
2023-02-06T05:49:55.658Z,66.17
2023-02-06T05:50:59.423Z,67.06
2023-02-06T05:52:09.068Z,67.62
2023-02-06T05:53:11.759Z,67.93
2023-02-06T05:54:16.412Z,67.63
2023-02-06T05:55:19.428Z,67.20
2023-02-06T05:56:22.086Z,66.92
2023-02-06T05:57:32.192Z,67.65
2023-02-06T05:58:35.085Z,67.59
2023-02-06T05:59:37.789Z,67.55
2023-02-06T06:00:40.711Z,67.40
2023-02-06T06:01:43.448Z,67.26
2023-02-06T06:02:53.031Z,67.49
2023-02-06T06:03:56.180Z,67.67
2023-02-06T06:04:58.944Z,67.27
2023-02-06T06:06:02.128Z,67.29
2023-02-06T06:07:05.256Z,67.26
2023-02-06T06:08:15.006Z,67.64
2023-02-06T06:09:17.925Z,67.72
2023-02-06T06:10:20.616Z,68.02
2023-02-06T06:11:23.280Z,67.36
2023-02-06T06:12:26.020Z,67.54
2023-02-06T06:13:34.987Z,67.76
2023-02-06T06:14:37.648Z,67.44
2023-02-06T06:15:40.272Z,67.45
2023-02-06T06:16:43.778Z,67.49
2023-02-06T06:17:46.454Z,67.03
2023-02-06T06:18:56.133Z,66.56
2023-02-06T06:19:58.808Z,66.85
2023-02-06T06:21:01.427Z,67.28
2023-02-06T06:22:04.042Z,67.94
2023-02-06T06:23:06.750Z,67.88
2023-02-06T06:24:16.041Z,68.19
2023-02-06T06:25:18.879Z,68.29
2023-02-06T06:26:21.643Z,68.45
2023-02-06T06:27:25.074Z,68.43
2023-02-06T06:28:28.112Z,68.09
2023-02-06T06:29:38.044Z,68.00
2023-02-06T06:30:40.731Z,67.75
2023-02-06T06:31:43.407Z,67.96
2023-02-06T06:32:46.093Z,68.07
2023-02-06T06:33:48.799Z,67.91
2023-02-06T06:34:58.059Z,68.15
2023-02-06T06:36:01.618Z,68.33
2023-02-06T06:37:11.112Z,68.56
2023-02-06T06:38:20.409Z,68.65
2023-02-06T06:39:23.083Z,68.42
2023-02-06T06:40:32.212Z,68.13
2023-02-06T06:41:34.974Z,68.60
2023-02-06T06:42:37.698Z,68.76
2023-02-06T06:43:40.616Z,68.78
2023-02-06T06:44:43.265Z,68.37
2023-02-06T06:45:52.165Z,68.15
2023-02-06T06:46:54.863Z,68.32
2023-02-06T06:47:57.568Z,68.85
2023-02-06T06:49:00.165Z,68.57
2023-02-06T06:50:02.822Z,68.15
2023-02-06T06:51:13.083Z,67.87
2023-02-06T06:52:24.404Z,68.56
2023-02-06T06:53:27.886Z,67.54
2023-02-06T06:54:30.547Z,67.96
2023-02-06T06:55:33.215Z,68.18
2023-02-06T06:56:42.105Z,68.20
2023-02-06T06:57:44.757Z,68.42
2023-02-06T06:58:47.461Z,68.27
2023-02-06T06:59:50.679Z,68.17
2023-02-06T07:00:54.521Z,67.64
2023-02-06T07:02:04.084Z,67.85
2023-02-06T07:03:06.790Z,67.30
2023-02-06T07:04:09.509Z,67.37
2023-02-06T07:05:12.396Z,67.87
2023-02-06T07:06:15.812Z,68.19
2023-02-06T07:07:25.154Z,66.78
2023-02-06T07:08:30.987Z,67.18
2023-02-06T07:09:33.700Z,67.87
2023-02-06T07:10:36.371Z,67.40
2023-02-06T07:11:39.040Z,67.49
2023-02-06T07:12:48.138Z,67.54
2023-02-06T07:13:51.010Z,67.37
2023-02-06T07:14:53.690Z,67.48
2023-02-06T07:15:56.371Z,67.43
2023-02-06T07:17:00.970Z,67.06
2023-02-06T07:18:11.720Z,67.85
2023-02-06T07:19:14.682Z,67.40
2023-02-06T07:20:17.719Z,67.16
2023-02-06T07:21:21.023Z,67.23
2023-02-06T07:22:23.781Z,67.12
2023-02-06T07:23:33.129Z,67.12
2023-02-06T07:24:35.748Z,67.16
2023-02-06T07:25:38.527Z,66.99
2023-02-06T07:26:42.618Z,66.92
2023-02-06T07:27:45.303Z,67.66
2023-02-06T07:28:57.114Z,67.12
2023-02-06T07:30:00.804Z,67.22
2023-02-06T07:31:05.392Z,66.07
2023-02-06T07:32:08.174Z,66.10
2023-02-06T07:33:10.886Z,66.32
2023-02-06T07:34:20.159Z,66.20
2023-02-06T07:35:22.827Z,65.98
2023-02-06T07:36:25.431Z,65.78
2023-02-06T07:37:34.254Z,65.72
2023-02-06T07:38:43.634Z,66.25
2023-02-06T07:39:53.163Z,66.79
2023-02-06T07:40:55.809Z,66.19
2023-02-06T07:41:58.502Z,65.97
2023-02-06T07:43:01.128Z,65.64
2023-02-06T07:44:03.727Z,65.41
2023-02-06T07:45:13.178Z,65.54
2023-02-06T07:46:16.242Z,65.49
2023-02-06T07:47:18.968Z,65.25
2023-02-06T07:48:21.582Z,65.34
2023-02-06T07:49:24.390Z,65.02
2023-02-06T07:50:33.215Z,64.72
2023-02-06T07:51:35.859Z,64.20
2023-02-06T07:52:38.670Z,64.25
2023-02-06T07:53:41.271Z,64.46
2023-02-06T07:54:44.157Z,64.17
2023-02-06T07:55:53.187Z,64.22
2023-02-06T07:56:55.820Z,63.92
2023-02-06T07:57:58.520Z,63.85
2023-02-06T07:59:01.189Z,63.48
2023-02-06T08:00:06.294Z,63.27
2023-02-06T08:01:16.334Z,63.31
2023-02-06T08:02:19.006Z,63.42
2023-02-06T08:03:22.092Z,63.52
2023-02-06T08:04:24.746Z,63.22
2023-02-06T08:05:27.425Z,63.39
2023-02-06T08:06:36.237Z,62.93
2023-02-06T08:07:39.057Z,62.73
2023-02-06T08:08:42.640Z,62.67
2023-02-06T08:09:45.343Z,62.04
2023-02-06T08:10:48.097Z,61.48
2023-02-06T08:11:57.213Z,61.06
2023-02-06T08:12:59.843Z,60.69
2023-02-06T08:14:03.636Z,60.65
2023-02-06T08:15:06.552Z,60.78
2023-02-06T08:16:14.070Z,60.88
2023-02-06T08:17:23.246Z,60.18
2023-02-06T08:18:25.894Z,60.23
2023-02-06T08:19:28.572Z,60.83
2023-02-06T08:20:31.227Z,61.06
2023-02-06T08:21:34.180Z,61.39
2023-02-06T08:22:43.260Z,61.44
2023-02-06T08:23:46.598Z,60.94
2023-02-06T08:24:49.318Z,60.90
2023-02-06T08:25:51.950Z,60.49
2023-02-06T08:26:54.569Z,60.14
2023-02-06T08:28:04.317Z,60.10
2023-02-06T08:29:08.584Z,60.03
2023-02-06T08:30:11.894Z,59.20
2023-02-06T08:31:25.244Z,59.35
2023-02-06T08:32:33.612Z,57.83
2023-02-06T08:33:42.327Z,58.17
2023-02-06T08:34:45.626Z,58.89
2023-02-06T08:35:48.227Z,58.66
2023-02-06T08:36:50.898Z,58.01
2023-02-06T08:38:01.975Z,57.66
2023-02-06T08:39:20.282Z,58.49
2023-02-06T08:40:22.970Z,58.02
2023-02-06T08:41:28.495Z,58.30
2023-02-06T08:42:31.286Z,58.47
2023-02-06T08:43:33.925Z,58.39
2023-02-06T08:44:43.310Z,57.85
2023-02-06T08:45:52.844Z,57.55
2023-02-06T08:47:08.953Z,57.52
2023-02-06T08:48:12.517Z,56.91
2023-02-06T08:49:18.116Z,56.52
2023-02-06T08:50:27.327Z,56.99
2023-02-06T08:51:30.168Z,56.43
2023-02-06T08:52:32.829Z,55.66
2023-02-06T08:53:35.771Z,55.37
2023-02-06T08:54:38.986Z,54.40
2023-02-06T08:55:48.323Z,54.69
2023-02-06T08:56:52.810Z,55.37
2023-02-06T08:57:55.932Z,55.72
2023-02-06T08:59:03.098Z,55.79
2023-02-06T09:00:06.288Z,55.65
2023-02-06T09:01:17.427Z,54.99
2023-02-06T09:02:20.118Z,55.30
2023-02-06T09:03:24.104Z,55.30
2023-02-06T09:04:29.984Z,56.33
2023-02-06T09:05:33.384Z,56.34
2023-02-06T09:06:43.416Z,56.45
2023-02-06T09:07:46.063Z,56.53
2023-02-06T09:08:48.863Z,56.03
2023-02-06T09:09:51.586Z,55.49
2023-02-06T09:10:54.211Z,55.41
2023-02-06T09:12:05.401Z,55.85
2023-02-06T09:13:08.077Z,55.38
2023-02-06T09:14:15.758Z,55.58
2023-02-06T09:15:18.556Z,55.16
2023-02-06T09:16:22.107Z,54.72
2023-02-06T09:17:31.389Z,54.95
2023-02-06T09:18:34.477Z,54.76
2023-02-06T09:19:37.089Z,54.73
2023-02-06T09:20:39.725Z,54.49
2023-02-06T09:21:43.002Z,54.78
2023-02-06T09:22:53.402Z,53.70
2023-02-06T09:24:00.113Z,54.13
2023-02-06T09:25:02.813Z,54.52
2023-02-06T09:26:05.996Z,54.53
2023-02-06T09:27:08.620Z,54.68
2023-02-06T09:28:18.464Z,54.78
2023-02-06T09:29:21.253Z,54.80
2023-02-06T09:30:24.434Z,54.22
2023-02-06T09:31:31.595Z,54.05
2023-02-06T09:32:34.306Z,54.64
2023-02-06T09:33:45.420Z,54.63
2023-02-06T09:34:49.111Z,54.43
2023-02-06T09:35:51.840Z,54.44
2023-02-06T09:36:55.591Z,54.09
2023-02-06T09:38:04.559Z,53.67
2023-02-06T09:39:20.436Z,53.83
2023-02-06T09:40:28.040Z,53.64
2023-02-06T09:41:56.919Z,53.22
2023-02-06T09:43:00.826Z,54.46
2023-02-06T09:44:08.983Z,54.00
2023-02-06T09:45:34.685Z,53.65
2023-02-06T09:46:47.102Z,53.95
2023-02-06T09:47:55.209Z,53.76
2023-02-06T09:49:01.685Z,54.24
2023-02-06T09:50:24.487Z,54.57
2023-02-06T09:51:45.472Z,54.53
2023-02-06T09:52:54.022Z,53.41
2023-02-06T09:54:11.870Z,52.93
2023-02-06T09:55:39.552Z,53.46
2023-02-06T09:56:47.820Z,53.16
2023-02-06T09:58:28.554Z,53.08
2023-02-06T09:59:36.655Z,53.29
2023-02-06T10:01:03.457Z,54.22
2023-02-06T10:02:38.088Z,53.69
2023-02-06T10:03:40.736Z,52.98
2023-02-06T10:04:48.385Z,52.36
2023-02-06T10:06:15.462Z,52.82
2023-02-06T10:07:26.885Z,52.99
2023-02-06T10:08:33.736Z,52.61
2023-02-06T10:09:42.593Z,52.65
2023-02-06T10:11:00.730Z,52.34
2023-02-06T10:12:16.448Z,52.50
2023-02-06T10:13:27.568Z,52.27
2023-02-06T10:14:50.468Z,51.85
2023-02-06T10:15:58.896Z,51.89
2023-02-06T10:17:12.520Z,52.57
2023-02-06T10:18:42.245Z,51.85
2023-02-06T10:19:54.016Z,52.29
2023-02-06T10:21:01.380Z,52.66
2023-02-06T10:22:10.406Z,52.03
2023-02-06T10:23:50.525Z,50.92
2023-02-06T10:25:17.992Z,50.76
2023-02-06T10:26:20.816Z,49.86
2023-02-06T10:27:23.489Z,51.28
2023-02-06T10:28:29.276Z,50.36
2023-02-06T10:29:41.575Z,51.27
2023-02-06T10:31:02.312Z,51.24
2023-02-06T10:32:18.707Z,50.83
2023-02-06T10:33:40.197Z,51.46
2023-02-06T10:35:15.511Z,51.89
2023-02-06T10:36:27.137Z,50.63
2023-02-06T10:37:50.603Z,50.60
2023-02-06T10:39:19.162Z,49.29
2023-02-06T10:40:46.521Z,49.10
2023-02-06T10:42:04.331Z,48.68
2023-02-06T10:43:31.579Z,49.13
2023-02-06T10:44:52.941Z,47.78
2023-02-06T10:46:27.742Z,48.56
2023-02-06T10:47:50.960Z,48.03
2023-02-06T10:49:02.590Z,48.24
2023-02-06T10:50:28.010Z,47.96
2023-02-06T10:51:41.569Z,48.25
2023-02-06T10:52:44.823Z,47.73
2023-02-06T10:53:54.356Z,47.90
2023-02-06T10:55:00.458Z,47.38
2023-02-06T10:56:09.491Z,47.12
2023-02-06T10:57:26.579Z,47.20
2023-02-06T10:58:43.732Z,47.55
2023-02-06T10:59:49.522Z,47.13
2023-02-06T11:00:53.222Z,46.79
2023-02-06T11:02:21.143Z,47.09
2023-02-06T11:03:39.851Z,46.45
2023-02-06T11:04:52.785Z,46.56
2023-02-06T11:05:56.581Z,46.56
2023-02-06T11:07:03.487Z,46.61
2023-02-06T11:08:12.177Z,46.81
2023-02-06T11:09:23.606Z,46.42
2023-02-06T11:10:27.944Z,45.51
2023-02-06T11:11:37.225Z,44.97
2023-02-06T11:12:47.639Z,45.27
2023-02-06T11:14:07.948Z,45.11
2023-02-06T11:15:32.665Z,45.21
2023-02-06T11:16:38.560Z,46.83
2023-02-06T11:17:41.613Z,45.92
2023-02-06T11:18:46.469Z,45.00
2023-02-06T11:19:52.743Z,45.34
2023-02-06T11:21:02.673Z,44.66
2023-02-06T11:22:52.278Z,45.18
2023-02-06T11:24:10.915Z,45.50
2023-02-06T11:25:21.788Z,45.26
2023-02-06T11:26:30.608Z,45.70
2023-02-06T11:27:35.853Z,45.58
2023-02-06T11:28:50.051Z,45.12
2023-02-06T11:29:53.270Z,45.81
2023-02-06T11:30:59.563Z,45.97
2023-02-06T11:32:14.611Z,45.63
2023-02-06T11:33:26.304Z,45.21
2023-02-06T11:34:36.701Z,45.18
2023-02-06T11:35:47.255Z,45.48
2023-02-06T11:36:57.619Z,45.25
2023-02-06T11:38:22.672Z,45.13
2023-02-06T11:39:25.365Z,45.37
2023-02-06T11:40:29.269Z,45.59
2023-02-06T11:41:32.869Z,45.31
2023-02-06T11:42:37.413Z,44.79
2023-02-06T11:43:49.651Z,44.61
2023-02-06T11:44:54.194Z,44.43
2023-02-06T11:46:21.656Z,44.47
2023-02-06T11:47:37.198Z,43.84
2023-02-06T11:48:44.184Z,44.15
2023-02-06T11:49:53.749Z,43.13
2023-02-06T11:50:56.405Z,44.68
2023-02-06T11:52:01.092Z,45.09
2023-02-06T11:53:17.970Z,44.74
2023-02-06T11:54:47.742Z,44.75
2023-02-06T11:56:05.068Z,45.40
2023-02-06T11:57:20.750Z,44.96
2023-02-06T11:58:27.557Z,45.34
2023-02-06T11:59:38.739Z,45.21
2023-02-06T12:00:58.135Z,44.92
2023-02-06T12:02:02.638Z,45.02
2023-02-06T12:03:06.415Z,46.13
2023-02-06T12:04:24.513Z,45.87
2023-02-06T12:05:39.486Z,44.53
2023-02-06T12:06:42.683Z,44.57
2023-02-06T12:08:01.139Z,44.30
2023-02-06T12:09:10.709Z,44.08
2023-02-06T12:10:25.794Z,44.63
2023-02-06T12:11:46.591Z,45.03
2023-02-06T12:13:01.309Z,45.08
2023-02-06T12:14:13.645Z,43.51
2023-02-06T12:15:46.059Z,43.14
2023-02-06T12:16:50.400Z,43.22
2023-02-06T12:18:00.311Z,43.85
2023-02-06T12:19:04.258Z,44.20
2023-02-06T12:20:30.727Z,44.92
2023-02-06T12:22:03.875Z,44.01
2023-02-06T12:23:28.846Z,44.30
2023-02-06T12:24:36.154Z,43.63
2023-02-06T12:25:43.015Z,43.78
2023-02-06T12:26:47.710Z,44.00
2023-02-06T12:27:58.821Z,43.59
2023-02-06T12:29:10.679Z,42.36
2023-02-06T12:30:28.279Z,41.98
2023-02-06T12:31:42.938Z,42.26
2023-02-06T12:32:52.120Z,42.75
2023-02-06T12:34:05.783Z,43.33
2023-02-06T12:35:15.668Z,43.02
2023-02-06T12:36:21.644Z,43.17
2023-02-06T12:37:41.239Z,42.88
2023-02-06T12:39:20.803Z,43.63
2023-02-06T12:40:39.919Z,43.37
2023-02-06T12:42:11.370Z,43.19
2023-02-06T12:43:16.776Z,43.55
2023-02-06T12:44:35.818Z,43.09
2023-02-06T12:45:41.498Z,43.33
2023-02-06T12:46:47.396Z,43.79
2023-02-06T12:48:03.893Z,43.47
2023-02-06T12:49:12.548Z,43.92
2023-02-06T12:50:29.814Z,44.17
2023-02-06T12:51:37.286Z,43.45
2023-02-06T12:52:48.812Z,43.83
2023-02-06T12:54:02.113Z,43.51
2023-02-06T12:55:19.849Z,44.21
2023-02-06T12:56:32.061Z,44.35
2023-02-06T12:57:36.483Z,43.93
2023-02-06T12:58:44.875Z,44.20
2023-02-06T12:59:59.343Z,43.85
2023-02-06T13:01:31.593Z,44.26
2023-02-06T13:02:54.590Z,44.32
2023-02-06T13:04:00.940Z,45.13
2023-02-06T13:05:08.791Z,45.02
2023-02-06T13:06:28.937Z,44.47
2023-02-06T13:07:33.951Z,44.56
2023-02-06T13:08:51.204Z,44.96
2023-02-06T13:10:02.250Z,45.82
2023-02-06T13:11:15.920Z,45.35
2023-02-06T13:12:27.942Z,44.90
2023-02-06T13:13:35.100Z,44.97
2023-02-06T13:14:40.027Z,44.90
2023-02-06T13:15:42.953Z,45.23
2023-02-06T13:17:01.868Z,45.04
2023-02-06T13:18:38.152Z,44.75
2023-02-06T13:19:40.749Z,45.18
2023-02-06T13:21:17.262Z,45.01
2023-02-06T13:22:51.917Z,44.66
2023-02-06T13:24:03.273Z,44.59
2023-02-06T13:25:28.914Z,44.53
2023-02-06T13:26:54.168Z,44.65
2023-02-06T13:28:05.979Z,44.52
2023-02-06T13:29:28.692Z,45.15
2023-02-06T13:30:31.446Z,45.71
2023-02-06T13:31:36.519Z,45.23
2023-02-06T13:32:46.304Z,44.98
2023-02-06T13:34:07.905Z,44.74
2023-02-06T13:35:31.880Z,45.31
2023-02-06T13:36:45.940Z,45.33
2023-02-06T13:37:57.048Z,45.33
2023-02-06T13:39:31.069Z,45.76
2023-02-06T13:40:36.394Z,45.38
2023-02-06T13:41:39.492Z,45.77
2023-02-06T13:42:50.276Z,46.05
2023-02-06T13:43:59.932Z,46.32
2023-02-06T13:45:12.058Z,46.25
2023-02-06T13:46:18.554Z,45.18
2023-02-06T13:47:29.584Z,45.89
2023-02-06T13:48:50.307Z,46.24
2023-02-06T13:50:32.065Z,46.43
2023-02-06T13:51:46.452Z,46.50
2023-02-06T13:53:08.106Z,46.75
2023-02-06T13:54:23.825Z,47.05
2023-02-06T13:55:55.088Z,46.94
2023-02-06T13:57:35.023Z,47.29
2023-02-06T13:58:47.428Z,47.29
2023-02-06T14:00:17.767Z,47.77
2023-02-06T14:01:33.106Z,47.50
2023-02-06T14:02:54.732Z,47.36
2023-02-06T14:03:59.415Z,47.70
2023-02-06T14:05:05.387Z,47.95
2023-02-06T14:06:11.084Z,47.70
2023-02-06T14:07:35.099Z,47.76
2023-02-06T14:09:05.426Z,47.84
2023-02-06T14:10:49.979Z,47.80
2023-02-06T14:12:46.090Z,48.35
2023-02-06T14:14:25.859Z,47.99
2023-02-06T14:15:31.169Z,48.41
2023-02-06T14:16:33.780Z,47.65
2023-02-06T14:18:15.072Z,47.86
2023-02-06T14:19:40.600Z,47.54
2023-02-06T14:20:55.370Z,47.75
2023-02-06T14:22:19.545Z,47.90
2023-02-06T14:23:37.118Z,47.66
2023-02-06T14:25:09.705Z,48.14
2023-02-06T14:26:31.253Z,48.19
2023-02-06T14:27:52.397Z,48.38
2023-02-06T14:29:04.101Z,48.24
2023-02-06T14:30:35.728Z,48.37
2023-02-06T14:32:29.528Z,48.83
2023-02-06T14:33:53.403Z,49.02
2023-02-06T14:35:28.097Z,48.52
2023-02-06T14:37:12.424Z,48.51
2023-02-06T14:39:03.674Z,49.01
2023-02-06T14:40:27.149Z,49.04
2023-02-06T14:41:34.245Z,49.03
2023-02-06T14:42:40.829Z,49.33
2023-02-06T14:43:45.914Z,49.15
2023-02-06T14:44:56.004Z,49.57
2023-02-06T14:46:12.452Z,49.24
2023-02-06T14:47:24.007Z,49.10
2023-02-06T14:48:52.919Z,49.73
2023-02-06T14:49:57.873Z,49.81
2023-02-06T14:51:00.662Z,49.81